Time;durP1;ratioP1;P1;durP2;ratioP2;P2;SDS_P1;SDS_P2;PMS_P1;PMS_P2;Temp;Humidity;BMP_temperature;BMP_pressure;BME280_temperature;BME280_humidity;BME280_pressure;Samples;Min_cycle;Max_cycle;Signal;HPM_P1;HPM_P2
2022/07/10 00:00:39;;;;;;;28.02;25.13;;;;;;;13.53;100.00;99164.94;2082552;28;20223;-78
2022/07/10 00:01:41;;;;;;;28.58;25.95;;;;;;;13.55;100.00;99169.97;2083692;28;20253;-78
2022/07/10 00:02:44;;;;;;;27.73;25.13;;;;;;;13.53;100.00;99167.63;2082354;28;20249;-78
2022/07/10 00:03:49;;;;;;;28.40;25.80;;;;;;;13.52;100.00;99159.91;2082713;28;20180;-78
2022/07/10 00:04:50;;;;;;;28.35;25.52;;;;;;;13.51;100.00;99159.09;2082412;28;20294;-78
2022/07/10 00:05:51;;;;;;;28.33;25.93;;;;;;;13.56;100.00;99156.28;2082420;28;20211;-78
2022/07/10 00:06:52;;;;;;;28.75;25.80;;;;;;;13.54;100.00;99155.00;2083396;28;20211;-78
2022/07/10 00:07:56;;;;;;;28.23;25.57;;;;;;;13.56;100.00;99158.97;2082426;28;20200;-78
2022/07/10 00:08:57;;;;;;;27.90;25.30;;;;;;;13.54;100.00;99158.47;2075287;28;20219;-78
2022/07/10 00:09:59;;;;;;;28.00;25.60;;;;;;;13.52;100.00;99160.69;2082674;28;20192;-78
2022/07/10 00:10:59;;;;;;;28.10;25.52;;;;;;;13.50;100.00;99157.53;2083243;28;20620;-78
2022/07/10 00:12:01;;;;;;;28.77;25.93;;;;;;;13.50;100.00;99154.06;2083703;28;20314;-78
2022/07/10 00:13:02;;;;;;;28.25;25.58;;;;;;;13.49;100.00;99155.97;2074195;28;20562;-78
2022/07/10 00:14:04;;;;;;;29.00;26.10;;;;;;;13.48;100.00;99150.91;2082802;28;20210;-78
2022/07/10 00:15:06;;;;;;;29.00;26.40;;;;;;;13.47;100.00;99147.44;2083445;28;20192;-78
2022/07/10 00:16:08;;;;;;;28.50;25.83;;;;;;;13.48;100.00;99149.03;2082931;28;20188;-78
2022/07/10 00:17:10;;;;;;;29.65;26.70;;;;;;;13.48;100.00;99142.88;2082953;28;20213;-78
2022/07/10 00:18:12;;;;;;;28.80;26.10;;;;;;;13.46;100.00;99153.88;2082376;28;20183;-78
2022/07/10 00:19:13;;;;;;;28.88;25.85;;;;;;;13.48;100.00;99150.91;2082456;28;20204;-78
2022/07/10 00:20:15;;;;;;;29.00;26.20;;;;;;;13.46;100.00;99145.84;2082924;28;20685;-78
2022/07/10 00:21:16;;;;;;;28.42;25.90;;;;;;;13.49;100.00;99150.59;2082710;28;20219;-78
2022/07/10 00:22:19;;;;;;;28.20;25.40;;;;;;;13.49;100.00;99155.16;2084092;28;20603;-78
2022/07/10 00:23:22;;;;;;;27.70;24.90;;;;;;;13.53;100.00;99145.38;2082942;28;20661;-78
2022/07/10 00:24:29;;;;;;;27.73;25.05;;;;;;;13.54;100.00;99142.38;2083007;28;20188;-78
2022/07/10 00:25:30;;;;;;;28.15;25.45;;;;;;;13.55;100.00;99144.00;2082963;28;20191;-78
2022/07/10 00:26:31;;;;;;;29.03;25.87;;;;;;;13.55;100.00;99144.00;2082105;28;20220;-78
2022/07/10 00:27:32;;;;;;;27.20;24.80;;;;;;;13.58;100.00;99143.34;2074545;28;20585;-78
2022/07/10 00:28:34;;;;;;;27.93;25.13;;;;;;;13.58;100.00;99140.69;2082426;28;20183;-78
2022/07/10 00:29:34;;;;;;;28.13;25.35;;;;;;;13.58;100.00;99140.69;2082678;28;20683;-78
2022/07/10 00:30:38;;;;;;;27.97;25.30;;;;;;;13.57;100.00;99133.75;2082995;28;20546;-78
2022/07/10 00:31:39;;;;;;;27.42;24.83;;;;;;;13.57;100.00;99141.00;2083016;28;20187;-78
2022/07/10 00:32:42;;;;;;;28.53;25.93;;;;;;;13.57;100.00;99133.75;2083407;28;20246;-78
2022/07/10 00:33:42;;;;;;;27.52;25.00;;;;;;;13.57;100.00;99131.06;2082850;28;20727;-78
2022/07/10 00:34:44;;;;;;;27.40;24.97;;;;;;;13.67;100.00;99139.91;2082958;28;20305;-78
2022/07/10 00:35:45;;;;;;;29.38;26.67;;;;;;;13.69;100.00;99129.66;2082842;28;20183;-78
2022/07/10 00:36:46;;;;;;;29.02;26.15;;;;;;;13.69;100.00;99130.44;2082581;28;20247;-78
2022/07/10 00:37:48;;;;;;;28.33;25.67;;;;;;;13.72;100.00;99129.00;2082413;28;20191;-78
2022/07/10 00:38:54;;;;;;;27.25;24.85;;;;;;;13.71;100.00;99128.22;2082225;28;20199;-78
2022/07/10 00:39:55;;;;;;;27.77;25.25;;;;;;;13.72;100.00;99120.97;2082193;28;20195;-78
2022/07/10 00:40:56;;;;;;;27.95;25.35;;;;;;;13.71;100.00;99117.50;2082206;28;20198;-78
2022/07/10 00:42:07;;;;;;;27.03;24.60;;;;;;;13.78;100.00;99125.06;2082425;28;20227;-78
2022/07/10 00:43:08;;;;;;;28.08;25.58;;;;;;;13.75;100.00;99120.34;2075523;28;20208;-78
2022/07/10 00:44:10;;;;;;;27.40;24.90;;;;;;;13.74;100.00;99119.56;2082081;28;20195;-78
2022/07/10 00:45:11;;;;;;;27.95;25.10;;;;;;;13.73;100.00;99117.19;2074042;28;20207;-78
2022/07/10 00:46:16;;;;;;;28.38;25.77;;;;;;;13.71;100.00;99117.50;2082261;28;20208;-78
2022/07/10 00:47:19;;;;;;;27.60;25.17;;;;;;;13.73;100.00;99112.63;2082758;28;20226;-78
2022/07/10 00:48:20;;;;;;;28.30;25.75;;;;;;;13.74;100.00;99108.03;2082660;28;20195;-78
2022/07/10 00:49:21;;;;;;;28.50;25.70;;;;;;;13.73;100.00;99112.63;2082701;28;20215;-78
2022/07/10 00:50:23;;;;;;;27.17;24.67;;;;;;;13.74;100.00;99113.41;2082030;28;20196;-78
2022/07/10 00:51:26;;;;;;;28.38;25.73;;;;;;;13.76;100.00;99121.94;2081573;28;20314;-78
2022/07/10 00:52:29;;;;;;;28.90;25.90;;;;;;;13.75;100.00;99114.97;2082748;28;20250;-78
2022/07/10 00:53:30;;;;;;;28.98;26.17;;;;;;;13.76;100.00;99117.34;2082701;28;20714;-78
2022/07/10 00:54:33;;;;;;;27.67;25.17;;;;;;;13.80;100.00;99114.81;2081701;28;20204;-78
2022/07/10 00:55:36;;;;;;;28.35;25.50;;;;;;;13.83;100.00;99116.88;2082095;28;20680;-78
2022/07/10 00:56:37;;;;;;;29.17;26.30;;;;;;;13.81;100.00;99109.16;2082673;28;20215;-78
2022/07/10 00:57:39;;;;;;;28.53;25.90;;;;;;;13.80;100.00;99106.75;2082568;28;20195;-77
2022/07/10 00:58:41;;;;;;;28.27;25.52;;;;;;;13.84;100.00;99100.47;2081992;28;20227;-78
2022/07/10 00:59:43;;;;;;;28.35;25.70;;;;;;;13.84;100.00;99102.38;2082278;28;20194;-78
2022/07/10 01:00:47;;;;;;;29.02;26.02;;;;;;;13.87;100.00;99101.72;2082942;28;20184;-78
2022/07/10 01:01:49;;;;;;;31.57;26.00;;;;;;;13.87;100.00;99101.72;2081955;28;20191;-78
2022/07/10 01:02:50;;;;;;;29.80;26.67;;;;;;;13.87;100.00;99099.03;2081937;28;20294;-78
2022/07/10 01:03:52;;;;;;;29.17;26.17;;;;;;;13.90;100.00;99101.09;2081943;28;20238;-78
2022/07/10 01:04:53;;;;;;;28.15;25.52;;;;;;;13.89;100.00;99088.78;2082240;28;20274;-78
2022/07/10 01:05:55;;;;;;;29.07;26.27;;;;;;;13.94;100.00;99091.31;2081298;28;20195;-77
2022/07/10 01:06:56;;;;;;;29.33;26.50;;;;;;;13.93;100.00;99097.78;2082062;28;20188;-78
2022/07/10 01:07:58;;;;;;;29.70;26.55;;;;;;;13.93;100.00;99100.47;2082814;28;20545;-78
2022/07/10 01:08:58;;;;;;;30.67;27.17;;;;;;;13.95;100.00;99097.47;2081959;28;20227;-78
2022/07/10 01:10:02;;;;;;;29.43;26.47;;;;;;;13.93;100.00;99100.47;2082079;28;20198;-78
2022/07/10 01:11:02;;;;;;;28.98;26.30;;;;;;;13.92;100.00;99098.88;2082675;28;20196;-78
2022/07/10 01:12:05;;;;;;;28.70;25.90;;;;;;;13.94;100.00;99099.34;2082551;28;20669;-78
2022/07/10 01:13:07;;;;;;;28.05;25.52;;;;;;;13.97;100.00;99093.34;2082474;28;20215;-78
2022/07/10 01:14:10;;;;;;;29.23;26.48;;;;;;;13.95;100.00;99090.19;2082526;28;20205;-78
2022/07/10 01:15:10;;;;;;;28.63;25.88;;;;;;;13.96;100.00;99094.47;2082513;28;20192;-78
2022/07/10 01:16:12;;;;;;;29.93;26.53;;;;;;;13.93;100.00;99100.47;2082439;28;20649;-78
2022/07/10 01:17:13;;;;;;;27.98;25.58;;;;;;;13.93;100.00;99103.16;2082432;28;20231;-78
2022/07/10 01:18:15;;;;;;;29.45;26.40;;;;;;;13.92;100.00;99098.09;2082500;28;20278;-78
2022/07/10 01:19:16;;;;;;;28.45;25.55;;;;;;;13.89;100.00;99093.34;2081486;28;20208;-78
2022/07/10 01:20:18;;;;;;;28.90;26.00;;;;;;;13.88;100.00;99095.25;2073639;28;20231;-78
2022/07/10 01:21:31;;;;;;;29.13;26.38;;;;;;;13.85;100.00;99098.56;2081646;28;20713;-78
2022/07/10 01:22:32;;;;;;;29.23;26.60;;;;;;;13.82;100.00;99094.63;2082384;28;20556;-78
2022/07/10 01:23:33;;;;;;;30.67;27.38;;;;;;;13.79;100.00;99092.56;2082384;28;20536;-78
2022/07/10 01:24:34;;;;;;;29.07;26.20;;;;;;;13.75;100.00;99098.91;2083114;28;20295;-78
2022/07/10 01:25:37;;;;;;;29.60;26.88;;;;;;;13.74;100.00;99100.78;2082627;28;20227;-78
2022/07/10 01:26:42;;;;;;;31.13;26.13;;;;;;;13.70;100.00;99093.69;2083074;28;20211;-78
2022/07/10 01:27:43;;;;;;;28.95;26.15;;;;;;;13.68;100.00;99093.22;2082388;28;20563;-78
2022/07/10 01:28:45;;;;;;;28.57;25.63;;;;;;;13.65;100.00;99080.44;2081709;28;20291;-78
2022/07/10 01:29:46;;;;;;;30.00;26.90;;;;;;;13.68;100.00;99091.31;2082512;28;20287;-78
2022/07/10 01:30:47;;;;;;;29.80;27.03;;;;;;;13.68;100.00;99098.56;2082578;28;20191;-78
2022/07/10 01:31:48;;;;;;;29.35;26.40;;;;;;;13.63;100.00;99096.03;2082923;28;20558;-78
2022/07/10 01:32:52;;;;;;;28.97;26.27;;;;;;;13.60;100.00;99092.09;2082451;28;20187;-78
2022/07/10 01:33:54;;;;;;;29.15;26.30;;;;;;;13.60;100.00;99094.00;2082376;28;20184;-78
2022/07/10 01:34:57;;;;;;;30.10;27.00;;;;;;;13.58;100.00;99086.28;2082334;28;20202;-78
2022/07/10 01:35:59;;;;;;;30.50;27.42;;;;;;;13.57;100.00;99082.81;2081265;28;20279;-77
2022/07/10 01:37:02;;;;;;;30.37;27.37;;;;;;;13.57;100.00;99090.84;2083215;28;20176;-78
2022/07/10 01:38:03;;;;;;;29.77;26.67;;;;;;;13.56;100.00;99089.28;2082555;28;20191;-78
2022/07/10 01:39:05;;;;;;;29.60;26.80;;;;;;;13.57;100.00;99077.44;2081189;28;20235;-78
2022/07/10 01:40:08;;;;;;;28.48;25.85;;;;;;;13.53;100.00;99071.13;2082653;28;20188;-78
2022/07/10 01:41:11;;;;;;;29.80;26.52;;;;;;;13.51;100.00;99077.91;2082014;28;20184;-78
2022/07/10 01:42:12;;;;;;;29.95;27.02;;;;;;;13.49;100.00;99077.44;2082523;28;20196;-78
2022/07/10 01:43:14;;;;;;;29.25;26.13;;;;;;;13.44;100.00;99069.53;2082302;28;20191;-78
2022/07/10 01:44:15;;;;;;;31.95;26.83;;;;;;;13.44;100.00;99069.53;2082273;28;20637;-78
2022/07/10 01:45:17;;;;;;;29.70;26.63;;;;;;;13.42;100.00;99069.06;2081786;28;20628;-78
2022/07/10 01:46:18;;;;;;;30.02;27.13;;;;;;;13.39;100.00;99078.53;2073434;28;20295;-78
2022/07/10 01:47:24;;;;;;;33.22;27.15;;;;;;;13.36;100.00;99068.44;2081808;28;20188;-78
2022/07/10 01:48:25;;;;;;;29.63;26.67;;;;;;;13.34;100.00;99069.84;2082301;28;20699;-78
2022/07/10 01:49:27;;;;;;;29.83;26.73;;;;;;;13.34;100.00;99070.63;2081742;28;20196;-78
2022/07/10 01:50:28;;;;;;;29.67;26.75;;;;;;;13.32;100.00;99070.16;2081792;28;20198;-78
2022/07/10 01:51:29;;;;;;;34.47;27.40;;;;;;;13.28;100.00;99064.63;2081920;28;20290;-78
2022/07/10 01:52:31;;;;;;;30.08;27.17;;;;;;;13.29;100.00;99070.78;2082437;28;20305;-78
2022/07/10 01:53:33;;;;;;;31.17;28.08;;;;;;;13.24;100.00;99068.25;2082222;28;20211;-78
2022/07/10 01:54:35;;;;;;;29.90;27.23;;;;;;;13.26;100.00;99071.41;2082467;28;20270;-78
2022/07/10 01:55:37;;;;;;;31.33;28.25;;;;;;;13.25;100.00;99067.16;2082229;28;20179;-78
2022/07/10 01:56:38;;;;;;;30.50;27.50;;;;;;;13.23;100.00;99066.69;2082240;28;20191;-78
2022/07/10 01:57:40;;;;;;;30.63;27.60;;;;;;;13.24;100.00;99065.59;2080980;28;20294;-77
2022/07/10 01:58:41;;;;;;;30.02;27.13;;;;;;;13.21;100.00;99069.69;2073349;28;20242;-78
2022/07/10 01:59:43;;;;;;;30.88;27.90;;;;;;;13.18;100.00;99064.91;2082003;28;20258;-78
2022/07/10 02:00:44;;;;;;;30.13;27.13;;;;;;;13.17;100.00;99071.38;2082203;28;20227;-78
2022/07/10 02:01:46;;;;;;;30.13;27.25;;;;;;;13.18;100.00;99064.13;2082195;28;20192;-78
2022/07/10 02:05:24;;;;;;;28.42;25.83;;;;;;;13.14;100.00;99063.19;2081936;28;20234;-78
2022/07/10 02:06:25;;;;;;;29.38;26.58;;;;;;;13.10;100.00;99063.00;2080939;28;20226;-78
2022/07/10 02:07:29;;;;;;;29.38;26.02;;;;;;;13.10;100.00;99056.84;2073640;28;20192;-78
2022/07/10 02:08:33;;;;;;;28.77;26.02;;;;;;;13.10;100.00;99051.50;2073380;28;20307;-78
2022/07/10 02:09:35;;;;;;;29.73;26.90;;;;;;;13.11;100.00;99053.06;2081586;28;20658;-78
2022/07/10 02:10:36;;;;;;;30.27;27.27;;;;;;;13.10;100.00;99051.50;2081568;28;20200;-78
2022/07/10 02:11:37;;;;;;;29.93;27.10;;;;;;;13.10;100.00;99057.63;2073282;28;20200;-78
2022/07/10 02:12:38;;;;;;;30.38;27.17;;;;;;;13.08;100.00;99049.13;2081160;28;20284;-78
2022/07/10 02:13:41;;;;;;;31.07;27.97;;;;;;;13.10;100.00;99054.16;2089846;28;20253;-78
2022/07/10 02:14:43;;;;;;;29.65;26.95;;;;;;;13.10;100.00;99048.81;2082283;28;20188;-78
2022/07/10 02:15:45;;;;;;;31.33;28.23;;;;;;;13.11;100.00;99045.81;2081564;28;20685;-78
2022/07/10 02:16:46;;;;;;;29.98;27.27;;;;;;;13.11;100.00;99053.84;2081520;28;20714;-78
2022/07/10 02:17:49;;;;;;;30.75;27.75;;;;;;;13.11;100.00;99053.06;2082207;28;20540;-78
2022/07/10 02:18:50;;;;;;;30.35;27.30;;;;;;;13.10;100.00;99048.81;2082232;28;20188;-78
2022/07/10 02:19:51;;;;;;;30.20;27.35;;;;;;;13.10;100.00;99043.47;2082298;28;20230;-78
2022/07/10 02:20:56;;;;;;;29.80;26.92;;;;;;;13.10;100.00;99040.78;2080599;28;20200;-77
2022/07/10 02:21:57;;;;;;;29.67;26.88;;;;;;;13.10;100.00;99043.47;2081834;28;20183;-78
2022/07/10 02:22:59;;;;;;;29.43;26.60;;;;;;;13.11;100.00;99045.03;2082390;28;20219;-78
2022/07/10 02:24:06;;;;;;;29.23;26.48;;;;;;;13.10;100.00;99035.41;2082162;28;20228;-78
2022/07/10 02:25:08;;;;;;;30.60;27.77;;;;;;;13.09;100.00;99041.88;2082119;28;20203;-78
2022/07/10 02:26:10;;;;;;;30.00;27.20;;;;;;;13.11;100.00;99037.78;2082579;28;20198;-78
2022/07/10 02:27:11;;;;;;;31.42;26.50;;;;;;;13.16;100.00;99039.53;2082044;28;20219;-78
2022/07/10 02:28:13;;;;;;;30.65;27.52;;;;;;;13.18;100.00;99042.69;2081571;28;20204;-78
2022/07/10 02:29:15;;;;;;;30.17;27.15;;;;;;;13.17;100.00;99038.44;2081557;28;20195;-78
2022/07/10 02:30:16;;;;;;;29.10;26.25;;;;;;;13.17;100.00;99039.22;2082104;28;20196;-78
2022/07/10 02:31:18;;;;;;;28.97;26.17;;;;;;;13.17;100.00;99033.06;2081995;28;20191;-78
2022/07/10 02:32:19;;;;;;;29.85;26.90;;;;;;;13.18;100.00;99040.78;2081559;28;20192;-78
2022/07/10 02:33:22;;;;;;;29.17;26.60;;;;;;;13.19;100.00;99038.91;2082142;28;20278;-78
2022/07/10 02:34:24;;;;;;;29.77;26.95;;;;;;;13.18;100.00;99040.78;2082247;28;20207;-78
2022/07/10 02:35:25;;;;;;;28.98;26.23;;;;;;;13.18;100.00;99040.00;2082304;28;20658;-78
2022/07/10 02:36:26;;;;;;;29.07;26.33;;;;;;;13.18;100.00;99046.16;2082015;28;20223;-78
2022/07/10 02:37:29;;;;;;;30.00;26.98;;;;;;;13.21;100.00;99048.25;2082176;28;20188;-78
2022/07/10 02:38:31;;;;;;;28.77;26.05;;;;;;;13.20;100.00;99043.19;2082025;28;20238;-78
2022/07/10 02:39:33;;;;;;;29.13;26.52;;;;;;;13.22;100.00;99044.47;2082394;28;20554;-78
2022/07/10 02:40:35;;;;;;;29.10;26.08;;;;;;;13.26;100.00;99044.63;2082053;28;20539;-78
2022/07/10 02:41:40;;;;;;;28.90;25.88;;;;;;;13.30;100.00;99045.59;2082706;28;20168;-78
2022/07/10 02:42:42;;;;;;;28.00;25.27;;;;;;;13.32;100.00;99048.72;2081320;28;20202;-78
2022/07/10 02:43:45;;;;;;;29.08;26.20;;;;;;;13.36;100.00;99048.88;2081484;28;20195;-78
2022/07/10 02:44:50;;;;;;;29.23;26.17;;;;;;;13.35;100.00;99040.06;2083104;28;20639;-78
2022/07/10 02:45:51;;;;;;;28.55;25.83;;;;;;;13.36;100.00;99032.81;2082255;28;20282;-78
2022/07/10 02:46:52;;;;;;;28.97;26.27;;;;;;;13.38;100.00;99030.59;2082376;28;20207;-78
2022/07/10 02:47:53;;;;;;;29.13;26.38;;;;;;;13.41;100.00;99036.13;2081995;28;20302;-78
2022/07/10 02:48:56;;;;;;;29.70;26.87;;;;;;;13.42;100.00;99032.34;2081650;28;20203;-78
2022/07/10 02:49:57;;;;;;;27.65;25.05;;;;;;;13.41;100.00;99020.03;2081491;28;20275;-78
2022/07/10 02:50:59;;;;;;;29.10;26.20;;;;;;;13.47;100.00;99028.72;2081485;28;20192;-77
2022/07/10 02:52:01;;;;;;;28.75;25.92;;;;;;;13.46;100.00;99035.16;2082438;28;20631;-78
2022/07/10 02:53:03;;;;;;;29.73;26.80;;;;;;;13.46;100.00;99022.56;2082761;28;20187;-78
2022/07/10 02:54:03;;;;;;;29.75;26.90;;;;;;;13.45;100.00;99020.97;2083618;28;20191;-78
2022/07/10 02:55:08;;;;;;;29.13;26.30;;;;;;;13.46;100.00;99032.47;2084692;28;20226;-78
2022/07/10 02:56:10;;;;;;;28.58;25.98;;;;;;;13.45;100.00;99020.97;2082913;28;20187;-78
2022/07/10 02:57:13;;;;;;;28.88;26.08;;;;;;;13.45;100.00;99020.97;2083042;28;20554;-78
2022/07/10 02:58:17;;;;;;;28.88;26.08;;;;;;;13.50;100.00;99022.72;2083495;28;20604;-78
2022/07/10 02:59:19;;;;;;;28.75;25.90;;;;;;;13.50;100.00;99022.72;2082900;28;20677;-78
2022/07/10 03:00:19;;;;;;;29.10;26.40;;;;;;;13.48;100.00;99015.00;2084490;28;20196;-78
2022/07/10 03:01:21;;;;;;;28.83;26.30;;;;;;;13.48;100.00;99020.38;2083582;28;20223;-78
2022/07/10 03:02:21;;;;;;;28.73;25.98;;;;;;;13.51;100.00;99018.94;2083792;28;20187;-78
2022/07/10 03:03:24;;;;;;;28.23;25.47;;;;;;;13.53;100.00;99022.88;2083731;28;20195;-78
2022/07/10 03:04:26;;;;;;;28.38;25.88;;;;;;;13.53;100.00;99022.88;2083547;28;20191;-78
2022/07/10 03:05:29;;;;;;;29.73;26.83;;;;;;;13.54;100.00;99019.09;2083901;28;20191;-78
2022/07/10 03:06:30;;;;;;;28.45;25.73;;;;;;;13.54;100.00;99026.34;2083227;28;20280;-78
2022/07/10 03:07:32;;;;;;;29.47;26.70;;;;;;;13.53;100.00;99024.75;2083846;28;20269;-78
2022/07/10 03:08:33;;;;;;;29.27;26.27;;;;;;;13.55;100.00;99019.88;2083515;28;20188;-78
2022/07/10 03:09:36;;;;;;;29.17;26.33;;;;;;;13.52;100.00;99015.94;2083480;28;20184;-78
2022/07/10 03:10:40;;;;;;;29.60;26.90;;;;;;;13.55;100.00;99022.53;2083488;28;20559;-78
2022/07/10 03:11:43;;;;;;;28.35;25.77;;;;;;;13.56;100.00;99022.25;2083482;28;20184;-78
2022/07/10 03:12:45;;;;;;;29.33;26.48;;;;;;;13.56;100.00;99011.53;2082723;28;20287;-78
2022/07/10 03:13:46;;;;;;;29.33;26.40;;;;;;;13.55;100.00;99015.31;2082995;28;20681;-78
2022/07/10 03:14:47;;;;;;;29.38;26.45;;;;;;;13.60;100.00;99021.63;2082769;28;20195;-78
2022/07/10 03:15:49;;;;;;;29.40;26.37;;;;;;;13.57;100.00;99017.69;2083372;28;20188;-78
2022/07/10 03:16:51;;;;;;;29.42;26.23;;;;;;;13.58;100.00;99016.56;2082705;28;20218;-78
2022/07/10 03:17:53;;;;;;;28.80;26.08;;;;;;;13.63;100.00;99019.06;2082911;28;20191;-78
2022/07/10 03:18:55;;;;;;;29.40;26.67;;;;;;;13.66;100.00;99015.78;2082752;28;20199;-78
2022/07/10 03:19:57;;;;;;;28.65;26.05;;;;;;;13.63;100.00;99015.59;2083076;28;20188;-78
2022/07/10 03:20:58;;;;;;;29.33;26.83;;;;;;;13.67;100.00;99013.88;2082958;28;20218;-77
2022/07/10 03:22:00;;;;;;;30.27;26.93;;;;;;;13.67;100.00;99009.31;2082744;28;20188;-78
2022/07/10 03:23:01;;;;;;;29.75;27.15;;;;;;;13.69;100.00;99012.44;2082787;28;20195;-78
2022/07/10 03:24:04;;;;;;;29.98;27.02;;;;;;;13.72;100.00;99019.06;2083391;28;20234;-78
2022/07/10 03:25:07;;;;;;;30.55;26.75;;;;;;;13.72;100.00;99019.06;2082705;28;20249;-78
2022/07/10 03:26:12;;;;;;;28.33;25.83;;;;;;;13.74;100.00;99017.66;2082889;28;20650;-78
2022/07/10 03:27:13;;;;;;;29.73;27.02;;;;;;;13.72;100.00;99019.84;2083092;28;20227;-78
2022/07/10 03:28:15;;;;;;;29.33;26.40;;;;;;;13.71;100.00;99012.91;2082680;28;20587;-78
2022/07/10 03:29:16;;;;;;;28.98;26.40;;;;;;;13.71;100.00;99020.19;2082800;28;20287;-78
2022/07/10 03:30:19;;;;;;;29.87;26.90;;;;;;;13.71;100.00;99017.50;2082636;28;20702;-78
2022/07/10 03:31:20;;;;;;;28.98;26.08;;;;;;;13.71;100.00;99012.13;2082831;28;20203;-78
2022/07/10 03:32:29;;;;;;;31.83;26.53;;;;;;;13.75;100.00;99013.88;2083354;28;20220;-78
2022/07/10 03:33:31;;;;;;;29.52;26.73;;;;;;;13.75;100.00;99013.88;2083373;28;20172;-78
2022/07/10 03:34:33;;;;;;;29.65;26.73;;;;;;;13.76;100.00;99020.03;2083315;28;20245;-78
2022/07/10 03:35:34;;;;;;;29.20;26.52;;;;;;;13.78;100.00;99017.81;2083304;28;20578;-78
2022/07/10 03:36:36;;;;;;;27.63;25.30;;;;;;;13.79;100.00;99019.38;2082863;28;20298;-78
2022/07/10 03:37:37;;;;;;;28.98;26.35;;;;;;;13.83;100.00;99020.34;2082515;28;20705;-78
2022/07/10 03:38:39;;;;;;;29.60;26.08;;;;;;;13.82;100.00;99021.44;2074512;28;20204;-78
2022/07/10 03:39:39;;;;;;;29.45;26.58;;;;;;;13.82;100.00;99014.19;2082897;28;20226;-78
2022/07/10 03:40:42;;;;;;;29.20;26.33;;;;;;;13.82;100.00;99013.41;2083331;28;20238;-78
2022/07/10 03:41:44;;;;;;;30.02;27.15;;;;;;;13.81;100.00;99015.28;2083255;28;20225;-78
2022/07/10 03:42:45;;;;;;;30.35;27.45;;;;;;;13.81;100.00;99017.16;2083326;28;20195;-78
2022/07/10 03:43:46;;;;;;;29.30;26.50;;;;;;;13.84;100.00;99013.88;2083269;28;20270;-78
2022/07/10 03:44:48;;;;;;;29.33;26.80;;;;;;;13.83;100.00;99009.59;2083566;28;20188;-78
2022/07/10 03:45:48;;;;;;;30.30;27.30;;;;;;;13.85;100.00;99015.44;2083458;28;20223;-78
2022/07/10 03:46:50;;;;;;;29.23;26.63;;;;;;;13.85;100.00;99018.13;2083386;28;20195;-78
2022/07/10 03:47:51;;;;;;;30.30;27.40;;;;;;;13.84;100.00;99011.19;2082443;28;20254;-78
2022/07/10 03:48:52;;;;;;;30.50;27.50;;;;;;;13.80;100.00;99008.34;2082574;28;20204;-78
2022/07/10 03:49:53;;;;;;;30.45;27.48;;;;;;;13.80;100.00;99004.88;2083223;28;20219;-78
2022/07/10 03:50:55;;;;;;;31.27;28.03;;;;;;;13.79;100.00;99008.66;2082692;28;20184;-78
2022/07/10 03:52:00;;;;;;;30.02;27.23;;;;;;;13.78;100.00;99007.09;2083664;28;20191;-78
2022/07/10 03:53:02;;;;;;;31.25;28.13;;;;;;;13.82;100.00;99008.81;2083223;28;20218;-78
2022/07/10 03:54:03;;;;;;;30.65;27.35;;;;;;;13.82;100.00;99006.13;2082736;28;20227;-78
2022/07/10 03:55:06;;;;;;;30.17;27.13;;;;;;;13.83;100.00;99010.41;2074360;28;20698;-78
2022/07/10 03:56:07;;;;;;;31.60;28.48;;;;;;;13.85;100.00;99012.75;2082528;28;20203;-78
2022/07/10 03:58:30;;;;;;;31.73;28.60;;;;;;;13.86;100.00;99003.59;2082564;28;20262;-78
2022/07/10 03:59:32;;;;;;;30.33;27.48;;;;;;;13.91;100.00;99002.66;2083594;28;20337;-77
2022/07/10 04:00:38;;;;;;;30.95;27.85;;;;;;;13.89;100.00;98997.59;2083162;28;20211;-79
2022/07/10 04:01:38;;;;;;;31.50;28.40;;;;;;;13.89;100.00;98999.47;2083636;28;20176;-78
2022/07/10 04:02:40;;;;;;;30.73;27.73;;;;;;;13.91;100.00;98997.28;2083138;28;20222;-78
2022/07/10 04:03:41;;;;;;;30.10;26.88;;;;;;;13.92;100.00;99001.53;2083273;28;20219;-78
2022/07/10 04:04:43;;;;;;;28.87;26.27;;;;;;;13.93;100.00;98998.53;2082827;28;20188;-78
2022/07/10 04:05:45;;;;;;;29.55;26.60;;;;;;;13.94;100.00;99000.09;2083087;28;20215;-78
2022/07/10 04:06:47;;;;;;;29.42;26.63;;;;;;;13.96;100.00;98995.22;2082796;28;20223;-78
2022/07/10 04:07:48;;;;;;;30.17;27.08;;;;;;;13.99;100.00;98993.81;2083132;28;20211;-78
2022/07/10 04:08:50;;;;;;;29.87;26.87;;;;;;;14.00;100.00;98988.13;2083057;28;20194;-78
2022/07/10 04:09:51;;;;;;;29.27;26.38;;;;;;;14.00;100.00;98992.69;2082833;28;20207;-78
2022/07/10 04:10:52;;;;;;;29.10;26.30;;;;;;;13.98;100.00;98990.31;2074143;28;20208;-78
2022/07/10 04:11:54;;;;;;;28.30;25.70;;;;;;;14.01;100.00;98988.91;2082547;28;20278;-78
2022/07/10 04:12:59;;;;;;;27.75;25.42;;;;;;;14.04;100.00;98990.94;2083752;28;20199;-78
2022/07/10 04:13:59;;;;;;;28.45;25.70;;;;;;;14.04;100.00;98981.00;2083041;28;20556;-78
2022/07/10 04:15:03;;;;;;;29.47;26.77;;;;;;;14.08;100.00;98984.63;2083203;28;20274;-78
2022/07/10 04:16:04;;;;;;;29.42;26.23;;;;;;;14.05;100.00;98984.47;2083002;28;20282;-78
2022/07/10 04:17:06;;;;;;;28.55;25.95;;;;;;;14.08;100.00;98984.63;2082286;28;20200;-78
2022/07/10 04:18:07;;;;;;;29.55;26.52;;;;;;;14.12;100.00;98988.22;2074336;28;20658;-78
2022/07/10 04:19:09;;;;;;;29.63;26.65;;;;;;;14.14;100.00;98982.53;2082408;28;20267;-78
2022/07/10 04:20:10;;;;;;;29.27;26.48;;;;;;;14.14;100.00;98985.22;2082223;28;20215;-78
2022/07/10 04:21:14;;;;;;;31.70;27.08;;;;;;;14.11;100.00;98986.66;2082042;28;20224;-78
2022/07/10 04:22:15;;;;;;;29.75;26.55;;;;;;;14.11;100.00;98986.66;2083090;28;20176;-78
2022/07/10 04:23:17;;;;;;;30.93;26.33;;;;;;;14.09;100.00;98988.88;2082967;28;20193;-78
2022/07/10 04:24:17;;;;;;;30.27;26.65;;;;;;;14.12;100.00;98988.22;2082911;28;20184;-78
2022/07/10 04:25:21;;;;;;;29.40;26.07;;;;;;;14.12;100.00;98988.22;2082929;28;20195;-78
2022/07/10 04:26:22;;;;;;;29.10;26.15;;;;;;;14.12;100.00;98988.22;2081797;28;20294;-78
2022/07/10 04:27:24;;;;;;;29.37;26.37;;;;;;;14.12;100.00;98985.53;2082281;28;20188;-78
2022/07/10 04:28:27;;;;;;;29.38;26.48;;;;;;;14.17;100.00;98987.28;2082212;28;20266;-78
2022/07/10 04:29:34;;;;;;;28.73;25.85;;;;;;;14.12;100.00;98982.84;2082407;28;20214;-78
2022/07/10 04:30:34;;;;;;;28.73;25.92;;;;;;;14.17;100.00;98986.50;2083376;28;20173;-78
2022/07/10 04:31:36;;;;;;;28.93;26.17;;;;;;;14.20;100.00;98997.34;2082890;28;20254;-78
2022/07/10 04:32:37;;;;;;;28.98;25.98;;;;;;;14.23;100.00;98990.56;2082205;28;20206;-78
2022/07/10 04:33:38;;;;;;;29.03;26.27;;;;;;;14.28;100.00;98987.69;2083040;28;20192;-78
2022/07/10 04:34:39;;;;;;;28.08;25.25;;;;;;;14.35;100.00;98990.69;2082204;28;20202;-78
2022/07/10 04:35:41;;;;;;;29.70;25.43;;;;;;;14.37;100.00;98993.81;2082364;28;20184;-78
2022/07/10 04:36:41;;;;;;;29.08;26.20;;;;;;;14.43;100.00;98997.91;2082784;28;20234;-78
2022/07/10 04:37:43;;;;;;;30.00;26.10;;;;;;;14.44;100.00;98994.09;2082860;28;20188;-78
2022/07/10 04:38:43;;;;;;;28.35;25.33;;;;;;;14.46;100.00;98994.59;2083481;28;20188;-78
2022/07/10 04:39:45;;;;;;;28.73;25.83;;;;;;;14.47;100.00;98993.47;2082848;28;20190;-78
2022/07/10 04:40:47;;;;;;;29.05;26.15;;;;;;;14.56;100.00;98994.22;2083180;28;20274;-78
2022/07/10 04:41:49;;;;;;;28.98;26.00;;;;;;;14.55;100.00;98987.28;2083005;28;20548;-78
2022/07/10 04:42:51;;;;;;;28.00;25.27;;;;;;;14.49;100.00;98985.88;2081748;28;20306;-78
2022/07/10 04:43:53;;;;;;;27.92;25.00;;;;;;;14.49;100.00;98982.41;2074182;28;20239;-78
2022/07/10 04:44:55;;;;;;;27.80;24.92;;;;;;;14.51;100.00;98988.25;2082305;28;20195;-78
2022/07/10 04:45:55;;;;;;;28.98;25.77;;;;;;;14.52;100.00;98985.25;2082762;28;20188;-78